createdAt,value
2023-06-17T00:02:00.412Z,17.57
2023-06-17T00:04:27.550Z,17.42
2023-06-17T00:06:54.637Z,17.38
2023-06-17T00:09:21.522Z,17.39
2023-06-17T00:11:48.909Z,17.35
2023-06-17T00:14:17.590Z,17.35
2023-06-17T00:16:45.018Z,17.30
2023-06-17T00:19:16.857Z,17.34
2023-06-17T00:21:45.202Z,17.31
2023-06-17T00:24:13.441Z,17.22
2023-06-17T00:26:40.425Z,17.23
2023-06-17T00:29:08.130Z,17.22
2023-06-17T00:31:35.462Z,17.19
2023-06-17T00:34:02.383Z,17.20
2023-06-17T00:36:29.265Z,17.15
2023-06-17T00:38:56.213Z,17.17
2023-06-17T00:41:23.323Z,17.14
2023-06-17T00:43:50.472Z,17.12
2023-06-17T00:46:38.791Z,17.10
2023-06-17T00:49:12.932Z,17.11
2023-06-17T00:51:40.057Z,17.11
2023-06-17T00:54:11.006Z,17.14
2023-06-17T00:56:38.963Z,17.13
2023-06-17T00:59:06.524Z,17.14
2023-06-17T01:01:36.469Z,17.16
2023-06-17T01:04:05.838Z,17.10
2023-06-17T01:06:47.123Z,17.01
2023-06-17T01:09:21.523Z,16.97
2023-06-17T01:11:51.769Z,16.83
2023-06-17T01:14:20.087Z,16.77
2023-06-17T01:16:51.956Z,16.68
2023-06-17T01:19:25.892Z,16.66
2023-06-17T01:21:54.604Z,16.63
2023-06-17T01:24:31.539Z,16.55
2023-06-17T01:27:01.024Z,16.48
2023-06-17T01:29:30.495Z,16.46
2023-06-17T01:31:59.013Z,16.42
2023-06-17T01:34:57.405Z,16.40
2023-06-17T01:37:56.172Z,16.24
2023-06-17T01:40:24.656Z,16.21
2023-06-17T01:42:54.117Z,16.16
2023-06-17T01:45:21.825Z,16.06
2023-06-17T01:47:49.060Z,16.02
2023-06-17T01:50:20.905Z,16.01
2023-06-17T01:52:48.168Z,16.01
2023-06-17T01:55:18.412Z,16.02
2023-06-17T01:57:45.384Z,16.00
2023-06-17T02:00:14.270Z,16.03
2023-06-17T02:02:41.501Z,16.04
2023-06-17T02:05:09.976Z,16.10
2023-06-17T02:07:37.509Z,16.12
2023-06-17T02:10:05.182Z,16.07
2023-06-17T02:12:33.421Z,15.99
2023-06-17T02:15:01.006Z,15.96
2023-06-17T02:17:30.571Z,15.88
2023-06-17T02:19:57.503Z,15.88
2023-06-17T02:22:24.441Z,15.83
2023-06-17T02:24:51.392Z,15.80
2023-06-17T02:27:18.308Z,15.70
2023-06-17T02:29:45.937Z,15.67
2023-06-17T02:32:13.272Z,15.57
2023-06-17T02:34:43.377Z,15.51
2023-06-17T02:37:10.969Z,15.38
2023-06-17T02:39:37.920Z,15.42
2023-06-17T02:42:05.389Z,15.44
2023-06-17T02:44:32.339Z,15.50
2023-06-17T02:46:59.312Z,15.52
2023-06-17T02:49:26.656Z,15.50
2023-06-17T02:51:53.639Z,15.49
2023-06-17T02:54:20.844Z,15.42
2023-06-17T02:56:47.734Z,15.38
2023-06-17T02:59:16.320Z,15.41
2023-06-17T03:01:44.284Z,15.38
2023-06-17T03:04:12.005Z,15.25
2023-06-17T03:06:42.221Z,15.21
2023-06-17T03:09:09.686Z,15.17
2023-06-17T03:11:40.707Z,15.07
2023-06-17T03:14:08.833Z,15.08
2023-06-17T03:16:35.891Z,15.05
2023-06-17T03:19:03.252Z,15.07
2023-06-17T03:21:31.817Z,15.01
2023-06-17T03:23:59.812Z,14.96
2023-06-17T03:26:27.163Z,14.91
2023-06-17T03:28:54.399Z,14.92
2023-06-17T03:31:22.746Z,14.91
2023-06-17T03:33:53.026Z,14.86
2023-06-17T03:36:20.792Z,14.83
2023-06-17T03:38:47.634Z,14.82
2023-06-17T03:41:14.521Z,14.86
2023-06-17T03:43:41.640Z,14.89
2023-06-17T03:46:08.725Z,14.81
2023-06-17T03:48:35.623Z,14.77
2023-06-17T03:51:03.622Z,14.76
2023-06-17T03:53:31.138Z,14.81
2023-06-17T03:55:58.018Z,14.87
2023-06-17T03:58:25.700Z,14.83
2023-06-17T04:00:53.057Z,14.83
2023-06-17T04:03:20.458Z,14.86
2023-06-17T04:05:47.437Z,14.88
2023-06-17T04:08:14.411Z,14.89
2023-06-17T04:10:41.339Z,14.86
2023-06-17T04:13:08.341Z,14.81
2023-06-17T04:15:35.248Z,14.86
2023-06-17T04:18:03.696Z,14.87
2023-06-17T04:20:30.764Z,14.90
2023-06-17T04:22:57.662Z,15.01
2023-06-17T04:25:24.579Z,15.13
2023-06-17T04:27:54.481Z,15.25
2023-06-17T04:30:21.931Z,15.36
2023-06-17T04:32:51.230Z,15.39
2023-06-17T04:35:19.986Z,15.51
2023-06-17T04:37:54.334Z,15.65
2023-06-17T04:40:23.311Z,15.75
2023-06-17T04:42:52.433Z,15.79
2023-06-17T04:45:19.477Z,15.88
2023-06-17T04:47:46.978Z,16.03
2023-06-17T04:50:18.340Z,16.24
2023-06-17T04:52:48.795Z,16.45
2023-06-17T04:55:15.744Z,16.62
2023-06-17T04:57:43.604Z,16.80
2023-06-17T05:00:11.921Z,16.77
2023-06-17T05:02:41.006Z,16.58
2023-06-17T05:05:08.849Z,16.72
2023-06-17T05:07:36.041Z,16.97
2023-06-17T05:10:03.327Z,17.24
2023-06-17T05:12:30.229Z,17.40
2023-06-17T05:14:57.162Z,17.54
2023-06-17T05:17:24.270Z,17.89
2023-06-17T05:19:51.279Z,17.93
2023-06-17T05:22:18.178Z,18.10
2023-06-17T05:24:45.386Z,18.41
2023-06-17T05:27:12.408Z,18.26
2023-06-17T05:29:40.399Z,18.50
2023-06-17T05:32:07.974Z,18.42
2023-06-17T05:34:35.124Z,18.72
2023-06-17T05:37:02.236Z,19.10
2023-06-17T05:39:29.187Z,19.39
2023-06-17T05:41:56.053Z,19.62
2023-06-17T05:44:23.076Z,19.74
2023-06-17T05:46:50.077Z,20.07
2023-06-17T05:49:17.447Z,19.99
2023-06-17T05:51:44.441Z,20.03
2023-06-17T05:54:11.321Z,20.15
2023-06-17T05:56:38.160Z,20.68
2023-06-17T05:59:05.072Z,20.91
2023-06-17T06:01:32.031Z,20.80
2023-06-17T06:03:59.038Z,21.55
2023-06-17T06:06:25.992Z,22.03
2023-06-17T06:08:52.960Z,22.39
2023-06-17T06:11:19.903Z,22.39
2023-06-17T06:13:47.188Z,22.66
2023-06-17T06:16:14.089Z,22.93
2023-06-17T06:18:41.013Z,22.55
2023-06-17T06:21:07.903Z,22.75
2023-06-17T06:23:36.989Z,22.91
2023-06-17T06:26:03.947Z,22.66
2023-06-17T06:28:30.956Z,22.93
2023-06-17T06:30:57.823Z,23.18
2023-06-17T06:33:24.737Z,23.30
2023-06-17T06:35:51.687Z,23.91
2023-06-17T06:38:18.665Z,23.93
2023-06-17T06:40:45.561Z,24.12
2023-06-17T06:43:12.460Z,24.65
2023-06-17T06:45:39.400Z,24.90
2023-06-17T06:48:06.447Z,25.21
2023-06-17T06:50:34.457Z,25.66
2023-06-17T06:53:01.536Z,26.01
2023-06-17T06:55:29.731Z,26.05
2023-06-17T06:57:56.663Z,26.04
2023-06-17T07:00:23.713Z,26.69
2023-06-17T07:02:50.827Z,26.32
2023-06-17T07:05:17.770Z,27.07
2023-06-17T07:07:45.574Z,27.48
2023-06-17T07:10:12.537Z,27.62
2023-06-17T07:12:39.461Z,27.75
2023-06-17T07:15:07.215Z,27.95
2023-06-17T07:17:34.248Z,28.27
2023-06-17T07:20:01.211Z,28.10
2023-06-17T07:22:28.087Z,28.33
2023-06-17T07:24:55.091Z,28.95
2023-06-17T07:27:21.946Z,28.96
2023-06-17T07:29:48.864Z,29.42
2023-06-17T07:32:15.765Z,29.49
2023-06-17T07:34:42.672Z,29.57
2023-06-17T07:37:09.946Z,29.64
2023-06-17T07:39:36.874Z,29.51
2023-06-17T07:42:04.042Z,29.59
2023-06-17T07:44:32.949Z,28.45
2023-06-17T07:46:59.851Z,28.27
2023-06-17T07:49:26.805Z,28.94
2023-06-17T07:51:53.704Z,29.55
2023-06-17T07:54:20.625Z,29.60
2023-06-17T07:56:47.491Z,29.72
2023-06-17T07:59:14.424Z,29.77
2023-06-17T08:01:41.354Z,30.21
2023-06-17T08:04:08.405Z,30.13
2023-06-17T08:06:36.513Z,29.78
2023-06-17T08:09:04.215Z,29.96
2023-06-17T08:11:31.108Z,30.21
2023-06-17T08:13:58.069Z,30.37
2023-06-17T08:16:25.008Z,30.57
2023-06-17T08:18:52.147Z,30.97
2023-06-17T08:21:18.985Z,30.35
2023-06-17T08:23:46.349Z,30.40
2023-06-17T08:26:13.515Z,30.38
2023-06-17T08:28:40.680Z,30.64
2023-06-17T08:31:07.595Z,31.12
2023-06-17T08:33:34.804Z,31.41
2023-06-17T08:36:01.808Z,30.98
2023-06-17T08:38:28.660Z,31.25
2023-06-17T08:40:55.632Z,30.80
2023-06-17T08:43:23.756Z,30.29
2023-06-17T08:45:51.846Z,29.76
2023-06-17T08:48:19.354Z,29.18
2023-06-17T08:50:48.607Z,29.82
2023-06-17T08:53:16.068Z,30.28
2023-06-17T08:55:43.958Z,30.67
2023-06-17T08:58:11.635Z,30.83
2023-06-17T09:00:38.672Z,30.47
2023-06-17T09:03:08.585Z,30.37
2023-06-17T09:05:36.752Z,30.81
2023-06-17T09:08:04.036Z,30.85
2023-06-17T09:10:42.482Z,30.51
2023-06-17T09:13:09.718Z,29.44
2023-06-17T09:15:41.594Z,30.92
2023-06-17T09:18:11.930Z,30.69
2023-06-17T09:20:38.895Z,31.24
2023-06-17T09:23:05.790Z,31.30
2023-06-17T09:25:36.416Z,31.20
2023-06-17T09:28:15.996Z,30.98
2023-06-17T09:30:44.896Z,30.65
2023-06-17T09:33:22.997Z,30.64
2023-06-17T09:36:05.809Z,31.33
2023-06-17T09:38:33.585Z,31.59
2023-06-17T09:41:00.987Z,31.60
2023-06-17T09:43:29.429Z,32.04
2023-06-17T09:46:01.481Z,32.15
2023-06-17T09:48:33.487Z,32.12
2023-06-17T09:51:01.433Z,32.12
2023-06-17T09:53:30.781Z,31.49
2023-06-17T09:56:00.880Z,32.22
2023-06-17T09:58:32.571Z,32.51
2023-06-17T10:01:07.089Z,32.93
2023-06-17T10:03:35.007Z,31.65
2023-06-17T10:06:10.553Z,31.21
2023-06-17T10:08:40.843Z,30.98
2023-06-17T10:11:07.848Z,32.28
2023-06-17T10:13:38.030Z,31.99
2023-06-17T10:16:12.725Z,32.92
2023-06-17T10:18:42.357Z,32.13
2023-06-17T10:21:12.802Z,30.72
2023-06-17T10:23:42.590Z,31.00
2023-06-17T10:26:12.779Z,30.49
2023-06-17T10:28:54.488Z,30.32
2023-06-17T10:31:27.514Z,29.73
2023-06-17T10:33:56.404Z,30.97
2023-06-17T10:36:25.208Z,31.99
2023-06-17T10:39:05.615Z,32.08
2023-06-17T10:41:41.592Z,32.48
2023-06-17T10:44:36.688Z,33.09
2023-06-17T10:47:16.664Z,32.10
2023-06-17T10:49:43.822Z,32.08
2023-06-17T10:52:15.446Z,32.81
2023-06-17T10:54:55.315Z,33.50
2023-06-17T10:57:36.830Z,32.56
2023-06-17T11:00:13.109Z,32.76
2023-06-17T11:02:40.915Z,32.88
2023-06-17T11:05:09.373Z,32.78
2023-06-17T11:07:37.494Z,32.51
2023-06-17T11:10:05.406Z,33.39
2023-06-17T11:12:33.264Z,33.08
2023-06-17T11:15:01.433Z,33.81
2023-06-17T11:17:28.746Z,34.11
2023-06-17T11:19:56.340Z,33.53
2023-06-17T11:22:24.026Z,33.61
2023-06-17T11:24:50.945Z,32.99
2023-06-17T11:27:18.585Z,33.77
2023-06-17T11:29:46.026Z,34.14
2023-06-17T11:32:13.647Z,34.86
2023-06-17T11:34:42.817Z,34.16
2023-06-17T11:37:12.413Z,34.18
2023-06-17T11:39:40.214Z,33.90
2023-06-17T11:42:09.770Z,33.94
2023-06-17T11:44:37.148Z,33.89
2023-06-17T11:47:09.899Z,33.46
2023-06-17T11:49:41.646Z,33.78
2023-06-17T11:52:10.591Z,33.87
2023-06-17T11:54:49.992Z,33.02
2023-06-17T11:57:22.374Z,32.70
2023-06-17T11:59:51.113Z,32.71
2023-06-17T12:02:18.593Z,32.59
2023-06-17T12:04:47.258Z,32.64
2023-06-17T12:07:14.853Z,32.35
2023-06-17T12:09:55.566Z,32.86
2023-06-17T12:12:34.560Z,33.76
2023-06-17T12:15:14.813Z,33.89
2023-06-17T12:17:53.151Z,34.33
2023-06-17T12:20:22.353Z,34.86
2023-06-17T12:22:51.854Z,35.14
2023-06-17T12:25:19.518Z,34.50
2023-06-17T12:27:47.144Z,35.08
2023-06-17T12:30:14.918Z,34.43
2023-06-17T12:32:42.249Z,34.00
2023-06-17T12:35:12.553Z,34.61
2023-06-17T12:37:43.573Z,33.56
2023-06-17T12:40:11.262Z,33.80
2023-06-17T12:42:38.317Z,35.01
2023-06-17T12:45:07.313Z,35.08
2023-06-17T12:47:35.136Z,34.79
2023-06-17T12:50:02.257Z,34.54
2023-06-17T12:52:29.328Z,34.79
2023-06-17T12:55:00.452Z,34.66
2023-06-17T12:57:28.363Z,34.35
2023-06-17T12:59:55.741Z,34.98
2023-06-17T13:02:23.058Z,35.38
2023-06-17T13:04:50.531Z,34.76
2023-06-17T13:07:17.977Z,34.60
2023-06-17T13:09:44.919Z,34.53
2023-06-17T13:12:12.393Z,34.22
2023-06-17T13:14:39.391Z,35.04
2023-06-17T13:17:07.142Z,35.26
2023-06-17T13:19:34.179Z,34.73
2023-06-17T13:22:01.121Z,34.77
2023-06-17T13:24:28.330Z,34.53
2023-06-17T13:26:55.962Z,35.11
2023-06-17T13:29:24.179Z,35.95
2023-06-17T13:31:51.404Z,35.09
2023-06-17T13:34:19.218Z,34.75
2023-06-17T13:36:47.358Z,35.31
2023-06-17T13:39:15.077Z,35.51
2023-06-17T13:41:42.499Z,34.43
2023-06-17T13:44:09.892Z,34.95
2023-06-17T13:46:37.150Z,34.31
2023-06-17T13:49:04.605Z,34.27
2023-06-17T13:51:32.527Z,35.01
2023-06-17T13:54:01.834Z,35.18
2023-06-17T13:56:29.159Z,35.55
2023-06-17T13:58:56.721Z,35.50
2023-06-17T14:01:24.837Z,34.84
2023-06-17T14:03:52.377Z,35.23
2023-06-17T14:06:20.844Z,35.34
2023-06-17T14:08:48.067Z,35.19
2023-06-17T14:11:15.016Z,34.89
2023-06-17T14:13:43.926Z,35.05
2023-06-17T14:16:12.166Z,35.15
2023-06-17T14:18:39.277Z,35.42
2023-06-17T14:21:06.293Z,35.93
2023-06-17T14:23:33.277Z,35.65
2023-06-17T14:26:01.040Z,35.01
2023-06-17T14:28:27.956Z,34.23
2023-06-17T14:30:54.849Z,34.30
2023-06-17T14:33:21.727Z,34.37
2023-06-17T14:35:48.607Z,33.93
2023-06-17T14:38:15.526Z,34.37
2023-06-17T14:40:42.413Z,34.54
2023-06-17T14:43:09.359Z,34.20
2023-06-17T14:45:36.355Z,34.70
2023-06-17T14:48:04.272Z,35.61
2023-06-17T14:50:31.264Z,34.84
2023-06-17T14:52:58.202Z,34.73
2023-06-17T14:55:25.084Z,34.74
2023-06-17T14:57:52.253Z,34.53
2023-06-17T15:00:20.791Z,33.50
2023-06-17T15:02:56.169Z,34.02
2023-06-17T15:05:25.196Z,33.69
2023-06-17T15:07:53.109Z,33.55
2023-06-17T15:10:20.183Z,34.20
2023-06-17T15:12:47.471Z,34.06
2023-06-17T15:15:14.994Z,33.98
2023-06-17T15:17:42.609Z,33.48
2023-06-17T15:20:10.963Z,34.08
2023-06-17T15:22:39.366Z,33.97
2023-06-17T15:25:08.057Z,32.70
2023-06-17T15:27:35.016Z,32.42
2023-06-17T15:30:02.186Z,32.94
2023-06-17T15:32:29.161Z,33.50
2023-06-17T15:34:56.589Z,33.79
2023-06-17T15:37:23.581Z,33.89
2023-06-17T15:39:50.933Z,33.72
2023-06-17T15:42:17.898Z,33.86
2023-06-17T15:44:44.787Z,33.68
2023-06-17T15:47:11.789Z,34.17
2023-06-17T15:49:38.811Z,33.01
2023-06-17T15:52:06.607Z,33.71
2023-06-17T15:54:33.470Z,33.50
2023-06-17T15:57:02.451Z,34.09
2023-06-17T15:59:30.041Z,34.30
2023-06-17T16:01:57.057Z,33.89
2023-06-17T16:04:41.255Z,34.04
2023-06-17T16:07:13.979Z,33.61
2023-06-17T16:09:45.552Z,33.49
2023-06-17T16:12:13.039Z,33.48
2023-06-17T16:14:40.029Z,33.26
2023-06-17T16:17:09.311Z,32.80
2023-06-17T16:19:38.229Z,32.42
2023-06-17T16:22:10.997Z,31.67
2023-06-17T16:24:39.371Z,31.40
2023-06-17T16:27:06.556Z,30.90
2023-06-17T16:29:33.524Z,30.14
2023-06-17T16:32:00.502Z,30.56
2023-06-17T16:34:27.458Z,30.63
2023-06-17T16:36:54.346Z,30.44
2023-06-17T16:39:21.456Z,30.13
2023-06-17T16:41:48.468Z,30.18
2023-06-17T16:44:15.436Z,30.09
2023-06-17T16:46:42.374Z,29.92
2023-06-17T16:49:09.301Z,29.78
2023-06-17T16:51:36.221Z,29.27
2023-06-17T16:54:06.451Z,29.18
2023-06-17T16:56:33.749Z,29.44
2023-06-17T16:59:02.066Z,29.63
2023-06-17T17:01:29.808Z,29.55
2023-06-17T17:04:01.176Z,29.49
2023-06-17T17:06:28.118Z,29.11
2023-06-17T17:08:55.241Z,29.46
2023-06-17T17:11:22.219Z,29.31
2023-06-17T17:13:50.027Z,29.24
2023-06-17T17:16:18.510Z,29.29
2023-06-17T17:18:45.901Z,29.16
2023-06-17T17:21:13.053Z,29.12
2023-06-17T17:23:44.004Z,29.21
2023-06-17T17:26:13.189Z,28.71
2023-06-17T17:28:43.233Z,28.98
2023-06-17T17:31:10.376Z,28.68
2023-06-17T17:33:37.899Z,28.81
2023-06-17T17:36:05.176Z,28.87
2023-06-17T17:38:32.430Z,28.90
2023-06-17T17:40:59.329Z,28.82
2023-06-17T17:43:27.179Z,28.83
2023-06-17T17:45:56.334Z,28.78
2023-06-17T17:48:23.346Z,28.66
2023-06-17T17:50:51.408Z,28.65
2023-06-17T17:53:18.459Z,28.58
2023-06-17T17:55:45.425Z,28.50
2023-06-17T17:58:12.293Z,28.43
2023-06-17T18:00:39.270Z,28.37
2023-06-17T18:03:06.292Z,28.28
2023-06-17T18:05:33.672Z,28.15
2023-06-17T18:08:00.564Z,27.97
2023-06-17T18:10:27.473Z,27.89
2023-06-17T18:12:54.353Z,27.63
2023-06-17T18:15:21.443Z,27.61
2023-06-17T18:17:48.328Z,27.45
2023-06-17T18:20:15.365Z,27.34
2023-06-17T18:22:42.279Z,27.24
2023-06-17T18:25:09.988Z,27.03
2023-06-17T18:27:38.426Z,26.86
2023-06-17T18:30:06.416Z,26.68
2023-06-17T18:32:33.352Z,26.52
2023-06-17T18:35:00.362Z,26.43
2023-06-17T18:37:27.324Z,26.32
2023-06-17T18:39:54.365Z,26.20
2023-06-17T18:42:23.368Z,26.06
2023-06-17T18:44:50.230Z,25.97
2023-06-17T18:47:17.139Z,25.84
2023-06-17T18:49:43.989Z,25.77
2023-06-17T18:52:10.939Z,25.71
2023-06-17T18:54:37.816Z,25.51
2023-06-17T18:57:05.578Z,25.35
2023-06-17T18:59:32.726Z,25.15
2023-06-17T19:01:59.661Z,24.98
2023-06-17T19:04:26.571Z,24.92
2023-06-17T19:06:53.467Z,24.84
2023-06-17T19:09:20.575Z,24.73
2023-06-17T19:11:47.538Z,24.63
2023-06-17T19:14:14.510Z,24.49
2023-06-17T19:16:42.867Z,24.38
2023-06-17T19:19:09.898Z,24.15
2023-06-17T19:21:36.779Z,23.95
2023-06-17T19:24:04.069Z,23.88
2023-06-17T19:26:31.049Z,23.70
2023-06-17T19:28:57.971Z,23.59
2023-06-17T19:31:25.912Z,23.54
2023-06-17T19:33:53.916Z,23.52
2023-06-17T19:36:20.863Z,23.46
2023-06-17T19:38:47.768Z,23.37
2023-06-17T19:41:14.652Z,23.28
2023-06-17T19:43:41.541Z,23.17
2023-06-17T19:46:09.220Z,23.10
2023-06-17T19:48:36.720Z,23.00
2023-06-17T19:51:03.647Z,22.93
2023-06-17T19:53:31.420Z,22.78
2023-06-17T19:55:58.566Z,22.66
2023-06-17T19:58:25.569Z,22.50
2023-06-17T20:00:52.569Z,22.34
2023-06-17T20:03:19.615Z,22.20
2023-06-17T20:05:47.098Z,22.10
2023-06-17T20:08:14.668Z,22.04
2023-06-17T20:10:42.570Z,21.96
2023-06-17T20:13:09.907Z,21.88
2023-06-17T20:15:38.178Z,21.77
2023-06-17T20:18:05.571Z,21.71
2023-06-17T20:20:33.509Z,21.58
2023-06-17T20:23:00.580Z,21.50
2023-06-17T20:25:27.535Z,21.41
2023-06-17T20:27:54.402Z,21.32
2023-06-17T20:30:21.919Z,21.17
2023-06-17T20:32:49.085Z,21.12
2023-06-17T20:35:16.105Z,21.05
2023-06-17T20:37:44.592Z,20.92
2023-06-17T20:40:12.215Z,20.84
2023-06-17T20:42:39.195Z,20.83
2023-06-17T20:45:08.616Z,20.89
2023-06-17T20:47:36.299Z,20.81
2023-06-17T20:50:03.727Z,20.81
2023-06-17T20:52:30.795Z,20.83
2023-06-17T20:54:57.750Z,20.78
2023-06-17T20:57:24.641Z,20.78
2023-06-17T20:59:53.470Z,20.72
2023-06-17T21:02:20.688Z,20.69
2023-06-17T21:04:47.789Z,20.60
2023-06-17T21:07:14.725Z,20.55
2023-06-17T21:09:42.388Z,20.50
2023-06-17T21:12:09.586Z,20.43
2023-06-17T21:14:36.719Z,20.33
2023-06-17T21:17:03.777Z,20.31
2023-06-17T21:19:30.977Z,20.27
2023-06-17T21:21:57.876Z,20.26
2023-06-17T21:24:24.835Z,20.20
2023-06-17T21:26:51.743Z,20.19
2023-06-17T21:29:18.663Z,20.19
2023-06-17T21:31:45.631Z,20.21
2023-06-17T21:34:12.723Z,20.21
2023-06-17T21:36:40.448Z,20.26
2023-06-17T21:39:07.381Z,20.35
2023-06-17T21:41:34.272Z,20.34
2023-06-17T21:44:01.188Z,20.39
2023-06-17T21:46:31.032Z,20.38
2023-06-17T21:48:58.344Z,20.40
2023-06-17T21:51:25.316Z,20.42
2023-06-17T21:53:52.266Z,20.30
2023-06-17T21:56:19.156Z,20.17
2023-06-17T21:58:46.390Z,19.49
2023-06-17T22:01:13.344Z,19.04
2023-06-17T22:03:41.695Z,19.16
2023-06-17T22:06:09.056Z,19.18
2023-06-17T22:08:42.880Z,19.19
2023-06-17T22:11:12.142Z,19.12
2023-06-17T22:13:39.626Z,19.14
2023-06-17T22:16:06.870Z,19.14
2023-06-17T22:18:34.005Z,19.08
2023-06-17T22:21:01.054Z,19.10
2023-06-17T22:23:27.956Z,19.10
2023-06-17T22:25:56.615Z,19.14
2023-06-17T22:28:23.727Z,19.19
2023-06-17T22:30:50.929Z,19.27
2023-06-17T22:33:17.856Z,19.36
2023-06-17T22:35:44.725Z,19.39
2023-06-17T22:38:13.856Z,19.36
2023-06-17T22:40:40.808Z,19.37
2023-06-17T22:43:07.865Z,19.33
2023-06-17T22:45:34.888Z,19.25
2023-06-17T22:48:03.438Z,19.24
2023-06-17T22:50:30.878Z,19.23
2023-06-17T22:52:57.732Z,19.25
2023-06-17T22:55:24.619Z,19.17
2023-06-17T22:57:51.766Z,19.14
2023-06-17T23:00:19.143Z,19.19
2023-06-17T23:02:46.462Z,19.19
2023-06-17T23:05:13.478Z,19.11
2023-06-17T23:07:40.391Z,18.98
2023-06-17T23:10:07.940Z,18.88
2023-06-17T23:12:34.874Z,18.90
2023-06-17T23:15:01.965Z,18.85
2023-06-17T23:17:28.992Z,18.76
2023-06-17T23:20:00.455Z,18.76
2023-06-17T23:22:28.174Z,18.75
2023-06-17T23:24:56.177Z,18.74
2023-06-17T23:27:27.880Z,18.75
2023-06-17T23:29:56.051Z,18.63
2023-06-17T23:32:24.174Z,18.57
2023-06-17T23:34:54.734Z,18.52
2023-06-17T23:37:21.908Z,18.53
2023-06-17T23:39:48.986Z,18.47
2023-06-17T23:42:15.911Z,18.37
2023-06-17T23:44:43.350Z,18.31
2023-06-17T23:47:11.276Z,18.35
2023-06-17T23:49:40.811Z,18.33
2023-06-17T23:52:11.646Z,18.31
2023-06-17T23:54:38.753Z,18.30
2023-06-17T23:57:06.120Z,18.27
2023-06-17T23:59:33.404Z,18.19
